YXTE weather

Tenterfield - Federation Park Heliport
Tenterfield, New South Wales, Australia

Public forecast

Using degrees Celsius for public forecast. Weather courtesy of forecast.io.

METAR (pilot weather report)

Closest report is Casino Airport, 56.1 nm (103.8 km) E. Retrieved 2019/04/24 22:00 UTC (1 minute ago):

YCAS 242200Z AUTO 32004KT //// // ////// 18/16 Q1022

TAF (pilot weather forecast)

Closest forecast is RAAF Base Amberley, 92.1 nm (170.7 km) NNE. Retrieved 2019/04/24 18:00 UTC (4 hours ago):

TAF YAMB 241658Z 2418/2512 VRB03KT 9999 FEW030 BKN060 FM242200 12006KT 9999 SCT040 SCT120 FM250200 08009KT 9999 SCT045 FM251000 VRB03KT 9999 FEW050